createdAt,value
2023-09-06T00:01:43.767Z,3.70
2023-09-06T00:04:11.080Z,3.63
2023-09-06T00:06:37.682Z,3.70
2023-09-06T00:09:05.175Z,3.58
2023-09-06T00:11:31.898Z,3.90
2023-09-06T00:13:58.294Z,4.22
2023-09-06T00:16:24.687Z,3.53
2023-09-06T00:18:51.954Z,4.03
2023-09-06T00:21:18.620Z,4.00
2023-09-06T00:23:45.074Z,3.78
2023-09-06T00:26:11.843Z,3.33
2023-09-06T00:28:38.953Z,3.75
2023-09-06T00:31:05.441Z,3.83
2023-09-06T00:33:34.919Z,3.70
2023-09-06T00:36:03.744Z,3.75
2023-09-06T00:38:30.504Z,3.38
2023-09-06T00:40:57.582Z,3.35
2023-09-06T00:43:23.966Z,3.30
2023-09-06T00:45:52.398Z,3.67
2023-09-06T00:48:28.534Z,3.97
2023-09-06T00:50:56.861Z,3.80
2023-09-06T00:53:26.377Z,3.55
2023-09-06T00:55:53.529Z,3.60
2023-09-06T00:58:21.259Z,3.75
2023-09-06T01:00:50.294Z,3.60
2023-09-06T01:03:18.367Z,3.72
2023-09-06T01:05:44.788Z,3.92
2023-09-06T01:08:14.420Z,3.92
2023-09-06T01:10:41.200Z,3.33
2023-09-06T01:13:07.596Z,3.55
2023-09-06T01:15:34.651Z,3.72
2023-09-06T01:18:06.336Z,3.47
2023-09-06T01:20:43.630Z,3.45
2023-09-06T01:23:32.163Z,3.88
2023-09-06T01:25:58.619Z,3.55
2023-09-06T01:28:29.206Z,4.30
2023-09-06T01:30:56.847Z,3.38
2023-09-06T01:33:23.847Z,3.33
2023-09-06T01:35:50.836Z,4.10
2023-09-06T01:38:17.851Z,3.67
2023-09-06T01:40:45.003Z,3.38
2023-09-06T01:43:11.668Z,3.55
2023-09-06T01:45:40.174Z,3.42
2023-09-06T01:48:06.734Z,3.88
2023-09-06T01:50:33.097Z,4.13
2023-09-06T01:52:59.871Z,4.03
2023-09-06T01:55:26.259Z,3.38
2023-09-06T01:57:52.692Z,3.22
2023-09-06T02:00:28.954Z,3.28
2023-09-06T02:02:56.125Z,3.53
2023-09-06T02:05:23.285Z,3.45
2023-09-06T02:07:51.391Z,3.97
2023-09-06T02:10:18.520Z,3.85
2023-09-06T02:12:45.824Z,3.65
2023-09-06T02:15:16.194Z,4.13
2023-09-06T02:17:44.176Z,3.70
2023-09-06T02:20:18.986Z,4.00
2023-09-06T02:25:13.898Z,3.60
2023-09-06T02:27:41.756Z,3.33
2023-09-06T02:30:09.232Z,3.38
2023-09-06T02:32:35.769Z,3.85
2023-09-06T02:35:02.741Z,3.63
2023-09-06T02:37:29.160Z,3.58
2023-09-06T02:39:55.579Z,3.38
2023-09-06T02:42:23.234Z,3.67
2023-09-06T02:44:49.674Z,4.25
2023-09-06T02:47:16.283Z,3.45
2023-09-06T02:49:47.338Z,3.70
2023-09-06T02:52:29.298Z,3.40
2023-09-06T02:54:59.158Z,3.60
2023-09-06T02:57:29.868Z,3.90
2023-09-06T02:59:56.257Z,3.53
2023-09-06T03:02:25.648Z,3.70
2023-09-06T03:04:56.280Z,4.18
2023-09-06T03:07:23.187Z,3.30
2023-09-06T03:09:51.183Z,3.97
2023-09-06T03:12:17.862Z,3.92
2023-09-06T03:14:49.148Z,4.00
2023-09-06T03:17:19.761Z,3.65
2023-09-06T03:19:49.135Z,3.60
2023-09-06T03:22:16.609Z,3.33
2023-09-06T03:24:44.428Z,3.55
2023-09-06T03:27:16.763Z,3.78
2023-09-06T03:29:47.608Z,3.65
2023-09-06T03:32:14.484Z,3.35
2023-09-06T03:34:41.864Z,3.75
2023-09-06T03:37:12.401Z,3.70
2023-09-06T03:39:42.409Z,3.40
2023-09-06T03:42:09.622Z,3.25
2023-09-06T03:44:37.449Z,2.90
2023-09-06T03:47:14.573Z,4.10
2023-09-06T03:49:42.459Z,3.60
2023-09-06T03:52:08.952Z,3.47
2023-09-06T03:54:35.817Z,3.92
2023-09-06T03:57:03.843Z,3.42
2023-09-06T03:59:32.930Z,4.20
2023-09-06T04:01:59.687Z,3.70
2023-09-06T04:04:26.688Z,3.70
2023-09-06T04:06:53.271Z,3.92
2023-09-06T04:09:19.860Z,4.10
2023-09-06T04:11:48.134Z,3.75
2023-09-06T04:14:15.293Z,4.05
2023-09-06T04:16:41.747Z,3.60
2023-09-06T04:19:08.220Z,4.10
2023-09-06T04:21:34.652Z,2.85
2023-09-06T04:24:01.059Z,3.35
2023-09-06T04:26:27.845Z,3.60
2023-09-06T04:28:54.306Z,3.38
2023-09-06T04:31:20.806Z,3.55
2023-09-06T04:33:47.749Z,3.40
2023-09-06T04:36:14.115Z,3.55
2023-09-06T04:38:40.556Z,3.78
2023-09-06T04:41:07.359Z,3.53
2023-09-06T04:43:34.217Z,3.85
2023-09-06T04:46:01.019Z,3.55
2023-09-06T04:48:28.263Z,3.65
2023-09-06T04:50:57.545Z,3.80
2023-09-06T04:53:23.975Z,3.78
2023-09-06T04:55:51.289Z,4.07
2023-09-06T04:58:19.185Z,4.00
2023-09-06T05:00:48.889Z,3.45
2023-09-06T05:03:19.546Z,3.78
2023-09-06T05:05:47.399Z,4.07
2023-09-06T05:08:14.971Z,3.70
2023-09-06T05:10:41.892Z,3.45
2023-09-06T05:13:09.727Z,3.92
2023-09-06T05:15:37.346Z,3.88
2023-09-06T05:18:09.673Z,3.90
2023-09-06T05:20:39.025Z,3.67
2023-09-06T05:23:12.417Z,4.07
2023-09-06T05:25:40.092Z,3.80
2023-09-06T05:28:10.281Z,4.13
2023-09-06T05:30:41.810Z,3.65
2023-09-06T05:33:08.423Z,3.90
2023-09-06T05:35:35.446Z,4.18
2023-09-06T05:38:05.848Z,4.28
2023-09-06T05:40:34.387Z,3.92
2023-09-06T05:43:01.124Z,4.22
2023-09-06T05:45:28.067Z,4.68
2023-09-06T05:47:54.903Z,4.53
2023-09-06T05:50:21.634Z,4.32
2023-09-06T05:52:48.865Z,4.35
2023-09-06T05:55:15.859Z,4.18
2023-09-06T05:57:42.503Z,5.13
2023-09-06T06:00:14.365Z,4.50
2023-09-06T06:02:41.302Z,4.40
2023-09-06T06:05:08.298Z,4.53
2023-09-06T06:07:34.920Z,4.25
2023-09-06T06:10:01.328Z,5.75
2023-09-06T06:12:28.212Z,5.88
2023-09-06T06:14:54.971Z,7.50
2023-09-06T06:17:21.425Z,9.98
2023-09-06T06:19:49.314Z,10.68
2023-09-06T06:22:16.147Z,9.85
2023-09-06T06:24:45.515Z,6.18
2023-09-06T06:27:12.168Z,6.07
2023-09-06T06:29:39.761Z,5.93
2023-09-06T06:32:06.599Z,4.35
2023-09-06T06:34:33.109Z,5.00
2023-09-06T06:36:59.880Z,4.47
2023-09-06T06:39:27.272Z,3.70
2023-09-06T06:41:53.636Z,4.03
2023-09-06T06:44:20.454Z,4.30
2023-09-06T06:46:46.922Z,4.30
2023-09-06T06:49:13.326Z,4.05
2023-09-06T06:51:43.575Z,3.95
2023-09-06T06:54:11.747Z,3.90
2023-09-06T06:56:38.914Z,4.30
2023-09-06T06:59:05.910Z,3.78
2023-09-06T07:01:32.554Z,4.22
2023-09-06T07:03:59.612Z,3.75
2023-09-06T07:06:27.542Z,4.32
2023-09-06T07:08:55.705Z,3.90
2023-09-06T07:11:22.447Z,3.83
2023-09-06T07:13:50.625Z,3.67
2023-09-06T07:16:19.299Z,4.22
2023-09-06T07:18:47.473Z,4.40
2023-09-06T07:21:15.421Z,3.97
2023-09-06T07:23:41.910Z,4.03
2023-09-06T07:26:08.601Z,3.45
2023-09-06T07:28:45.987Z,4.25
2023-09-06T07:31:13.721Z,4.18
2023-09-06T07:33:40.101Z,4.32
2023-09-06T07:36:07.530Z,4.13
2023-09-06T07:38:34.367Z,4.20
2023-09-06T07:41:02.339Z,4.25
2023-09-06T07:43:30.065Z,4.30
2023-09-06T07:45:57.831Z,5.57
2023-09-06T07:48:26.673Z,4.85
2023-09-06T07:50:54.071Z,3.90
2023-09-06T07:53:20.610Z,4.55
2023-09-06T07:55:47.619Z,4.43
2023-09-06T07:58:15.477Z,4.65
2023-09-06T08:00:42.616Z,4.55
2023-09-06T08:03:09.506Z,4.80
2023-09-06T08:05:36.803Z,4.35
2023-09-06T08:08:05.712Z,4.78
2023-09-06T08:10:32.190Z,5.00
2023-09-06T08:12:58.997Z,4.72
2023-09-06T08:15:25.507Z,4.72
2023-09-06T08:17:52.453Z,4.55
2023-09-06T08:20:19.206Z,4.90
2023-09-06T08:22:46.425Z,4.95
2023-09-06T08:25:18.297Z,4.40
2023-09-06T08:27:45.288Z,4.50
2023-09-06T08:30:13.961Z,4.78
2023-09-06T08:32:42.191Z,4.88
2023-09-06T08:35:10.246Z,4.95
2023-09-06T08:37:36.944Z,4.82
2023-09-06T08:40:06.713Z,5.00
2023-09-06T08:42:37.415Z,4.43
2023-09-06T08:45:06.779Z,5.03
2023-09-06T08:47:34.098Z,4.65
2023-09-06T08:50:01.107Z,4.80
2023-09-06T08:52:29.072Z,4.85
2023-09-06T08:54:55.560Z,4.70
2023-09-06T08:57:23.252Z,4.40
2023-09-06T08:59:50.153Z,4.00
2023-09-06T09:02:17.283Z,4.47
2023-09-06T09:04:44.373Z,4.93
2023-09-06T09:07:12.342Z,4.10
2023-09-06T09:10:03.132Z,4.50
2023-09-06T09:12:30.530Z,3.92
2023-09-06T09:15:04.479Z,4.53
2023-09-06T09:17:53.190Z,4.15
2023-09-06T09:20:23.778Z,3.95
2023-09-06T09:22:51.967Z,4.25
2023-09-06T09:25:24.276Z,3.78
2023-09-06T09:27:59.527Z,4.20
2023-09-06T09:30:28.869Z,4.47
2023-09-06T09:33:02.491Z,4.18
2023-09-06T09:35:29.347Z,3.88
2023-09-06T09:37:57.633Z,3.97
2023-09-06T09:40:52.343Z,3.97
2023-09-06T09:43:25.547Z,3.95
2023-09-06T09:45:52.404Z,4.47
2023-09-06T09:48:21.226Z,4.00
2023-09-06T09:50:51.466Z,3.72
2023-09-06T09:53:24.553Z,4.03
2023-09-06T09:55:54.807Z,4.15
2023-09-06T09:58:21.910Z,4.30
2023-09-06T10:00:52.286Z,4.30
2023-09-06T10:03:19.903Z,4.10
2023-09-06T10:05:48.793Z,4.00
2023-09-06T10:08:18.885Z,3.80
2023-09-06T10:10:45.814Z,3.72
2023-09-06T10:13:15.838Z,3.70
2023-09-06T10:15:44.945Z,3.78
2023-09-06T10:18:12.347Z,4.28
2023-09-06T10:20:40.370Z,4.20
2023-09-06T10:23:08.652Z,4.22
2023-09-06T10:25:41.013Z,3.53
2023-09-06T10:28:08.566Z,3.70
2023-09-06T10:30:45.254Z,4.03
2023-09-06T10:33:38.096Z,3.55
2023-09-06T10:36:10.066Z,3.30
2023-09-06T10:38:52.284Z,3.45
2023-09-06T10:41:19.967Z,3.90
2023-09-06T10:43:57.000Z,3.40
2023-09-06T10:46:25.802Z,4.18
2023-09-06T10:49:22.451Z,3.50
2023-09-06T10:51:55.861Z,3.80
2023-09-06T10:54:35.643Z,3.80
2023-09-06T10:57:06.315Z,3.45
2023-09-06T10:59:40.195Z,3.05
2023-09-06T11:02:10.760Z,3.13
2023-09-06T11:04:37.761Z,3.30
2023-09-06T11:07:11.308Z,3.60
2023-09-06T11:09:51.754Z,3.10
2023-09-06T11:12:18.504Z,3.33
2023-09-06T11:14:48.881Z,3.35
2023-09-06T11:17:23.302Z,3.30
2023-09-06T11:19:49.979Z,3.25
2023-09-06T11:22:17.691Z,3.22
2023-09-06T11:24:44.852Z,3.00
2023-09-06T11:27:18.643Z,3.28
2023-09-06T11:29:45.142Z,2.53
2023-09-06T11:32:15.174Z,3.38
2023-09-06T11:34:44.907Z,2.80
2023-09-06T11:37:16.178Z,3.20
2023-09-06T11:39:44.656Z,3.10
2023-09-06T11:42:15.604Z,2.75
2023-09-06T11:44:49.378Z,2.78
2023-09-06T11:47:17.612Z,2.65
2023-09-06T11:49:46.714Z,2.40
2023-09-06T11:52:15.544Z,2.40
2023-09-06T11:54:43.804Z,2.78
2023-09-06T11:57:32.491Z,2.90
2023-09-06T11:59:59.001Z,2.50
2023-09-06T12:02:28.922Z,2.50
2023-09-06T12:05:12.689Z,2.70
2023-09-06T12:07:39.190Z,2.90
2023-09-06T12:10:08.215Z,2.30
2023-09-06T12:12:41.989Z,2.70
2023-09-06T12:15:15.782Z,2.75
2023-09-06T12:17:43.803Z,2.45
2023-09-06T12:20:17.610Z,2.85
2023-09-06T12:22:44.253Z,2.40
2023-09-06T12:25:10.942Z,2.58
2023-09-06T12:27:37.709Z,2.20
2023-09-06T12:30:04.673Z,2.70
2023-09-06T12:32:32.794Z,2.08
2023-09-06T12:35:00.621Z,2.25
2023-09-06T12:37:27.178Z,2.75
2023-09-06T12:39:53.628Z,2.60
2023-09-06T12:42:20.471Z,2.78
2023-09-06T12:44:46.947Z,2.90
2023-09-06T12:47:13.365Z,2.45
2023-09-06T12:49:40.144Z,1.92
2023-09-06T12:52:06.677Z,2.83
2023-09-06T12:54:33.064Z,3.20
2023-09-06T12:56:59.891Z,2.70
2023-09-06T12:59:26.280Z,2.60
2023-09-06T13:01:52.865Z,2.63
2023-09-06T13:04:19.794Z,2.60
2023-09-06T13:06:46.913Z,2.80
2023-09-06T13:09:14.811Z,2.47
2023-09-06T13:11:41.765Z,2.60
2023-09-06T13:14:08.173Z,2.55
2023-09-06T13:16:34.631Z,2.85
2023-09-06T13:19:01.216Z,3.83
2023-09-06T13:21:27.802Z,2.60
2023-09-06T13:23:54.239Z,2.70
2023-09-06T13:26:20.799Z,2.88
2023-09-06T13:28:47.332Z,2.53
2023-09-06T13:31:14.051Z,2.92
2023-09-06T13:33:41.044Z,2.53
2023-09-06T13:36:07.660Z,2.85
2023-09-06T13:38:34.145Z,2.05
2023-09-06T13:41:01.002Z,2.58
2023-09-06T13:43:27.472Z,2.97
2023-09-06T13:45:54.535Z,2.83
2023-09-06T13:48:21.202Z,2.97
2023-09-06T13:50:47.779Z,2.50
2023-09-06T13:53:14.140Z,2.88
2023-09-06T13:55:40.736Z,2.40
2023-09-06T13:58:09.902Z,2.90
2023-09-06T14:00:36.412Z,2.75
2023-09-06T14:03:03.359Z,2.85
2023-09-06T14:05:30.385Z,3.20
2023-09-06T14:07:56.777Z,2.72
2023-09-06T14:10:23.217Z,3.00
2023-09-06T14:12:49.574Z,2.38
2023-09-06T14:15:16.116Z,3.20
2023-09-06T14:17:42.706Z,2.67
2023-09-06T14:20:10.645Z,3.17
2023-09-06T14:22:37.055Z,2.80
2023-09-06T14:25:03.838Z,2.92
2023-09-06T14:27:31.107Z,2.97
2023-09-06T14:29:58.998Z,2.88
2023-09-06T14:32:25.668Z,2.72
2023-09-06T14:34:52.734Z,2.70
2023-09-06T14:37:19.268Z,3.00
2023-09-06T14:39:46.006Z,3.17
2023-09-06T14:42:12.361Z,3.00
2023-09-06T14:44:38.812Z,2.95
2023-09-06T14:47:05.520Z,2.60
2023-09-06T14:49:32.021Z,3.08
2023-09-06T14:52:01.313Z,2.85
2023-09-06T14:54:28.993Z,3.55
2023-09-06T14:56:58.970Z,2.90
2023-09-06T14:59:25.410Z,3.60
2023-09-06T15:01:52.316Z,3.00
2023-09-06T15:04:18.916Z,2.85
2023-09-06T15:06:57.934Z,3.03
2023-09-06T15:09:26.528Z,3.13
2023-09-06T15:11:53.865Z,3.20
2023-09-06T15:14:20.671Z,3.53
2023-09-06T15:16:47.804Z,3.20
2023-09-06T15:19:14.677Z,3.28
2023-09-06T15:21:41.251Z,3.05
2023-09-06T15:24:08.968Z,3.20
2023-09-06T15:26:35.439Z,2.63
2023-09-06T15:29:01.793Z,3.08
2023-09-06T15:31:30.773Z,2.67
2023-09-06T15:33:57.538Z,3.20
2023-09-06T15:36:26.740Z,2.65
2023-09-06T15:38:53.576Z,2.00
2023-09-06T15:41:20.009Z,2.78
2023-09-06T15:43:46.429Z,3.35
2023-09-06T15:46:13.748Z,2.70
2023-09-06T15:48:40.267Z,2.75
2023-09-06T15:51:06.738Z,2.78
2023-09-06T15:53:33.636Z,2.30
2023-09-06T15:56:00.208Z,2.95
2023-09-06T15:58:28.459Z,2.78
2023-09-06T16:00:55.226Z,2.50
2023-09-06T16:03:21.729Z,2.40
2023-09-06T16:05:48.215Z,2.50
2023-09-06T16:08:15.154Z,2.88
2023-09-06T16:10:41.509Z,2.08
2023-09-06T16:13:07.881Z,2.70
2023-09-06T16:15:34.723Z,2.67
2023-09-06T16:18:01.264Z,2.60
2023-09-06T16:20:27.798Z,2.60
2023-09-06T16:22:54.598Z,2.50
2023-09-06T16:25:20.984Z,2.50
2023-09-06T16:27:47.429Z,2.53
2023-09-06T16:30:14.865Z,2.17
2023-09-06T16:32:41.585Z,2.50
2023-09-06T16:35:08.392Z,2.08
2023-09-06T16:37:36.684Z,2.47
2023-09-06T16:40:03.211Z,2.42
2023-09-06T16:42:29.633Z,2.22
2023-09-06T16:44:56.470Z,2.20
2023-09-06T16:47:24.267Z,2.40
2023-09-06T16:49:52.477Z,2.55
2023-09-06T16:52:19.586Z,2.28
2023-09-06T16:54:46.045Z,2.45
2023-09-06T16:57:12.433Z,2.50
2023-09-06T16:59:39.251Z,2.53
2023-09-06T17:02:05.831Z,2.13
2023-09-06T17:04:32.405Z,2.55
2023-09-06T17:06:58.913Z,2.13
2023-09-06T17:09:25.275Z,2.08
2023-09-06T17:11:51.661Z,2.20
2023-09-06T17:14:18.385Z,2.25
2023-09-06T17:16:44.931Z,2.65
2023-09-06T17:19:11.486Z,1.88
2023-09-06T17:21:40.357Z,3.28
2023-09-06T17:24:08.376Z,2.35
2023-09-06T17:26:37.345Z,2.30
2023-09-06T17:29:07.555Z,1.98
2023-09-06T17:31:35.343Z,2.00
2023-09-06T17:34:02.112Z,2.00
2023-09-06T17:36:28.912Z,2.60
2023-09-06T17:38:55.376Z,2.10
2023-09-06T17:41:24.640Z,2.20
2023-09-06T17:43:51.922Z,2.22
2023-09-06T17:46:25.886Z,2.40
2023-09-06T17:51:20.879Z,2.30
2023-09-06T17:53:49.215Z,2.38
2023-09-06T17:56:20.744Z,2.33
2023-09-06T17:58:51.005Z,2.35
2023-09-06T18:01:19.961Z,2.40
2023-09-06T18:03:53.419Z,2.50
2023-09-06T18:06:25.411Z,2.78
2023-09-06T18:08:55.903Z,3.08
2023-09-06T18:11:22.986Z,3.03
2023-09-06T18:13:49.936Z,3.70
2023-09-06T18:16:18.087Z,3.40
2023-09-06T18:18:45.229Z,3.17
2023-09-06T18:21:14.582Z,2.50
2023-09-06T18:23:41.608Z,2.42
2023-09-06T18:26:09.123Z,2.00
2023-09-06T18:28:35.852Z,2.35
2023-09-06T18:31:03.160Z,2.47
2023-09-06T18:33:29.693Z,2.60
2023-09-06T18:35:56.545Z,2.95
2023-09-06T18:38:24.741Z,2.80
2023-09-06T18:40:54.350Z,2.72
2023-09-06T18:43:22.883Z,2.78
2023-09-06T18:45:50.193Z,3.30
2023-09-06T18:48:23.324Z,3.10
2023-09-06T18:50:50.970Z,2.88
2023-09-06T18:53:17.768Z,3.30
2023-09-06T18:55:47.982Z,3.85
2023-09-06T18:58:18.944Z,3.65
2023-09-06T19:00:45.804Z,3.15
2023-09-06T19:03:15.540Z,3.17
2023-09-06T19:05:43.510Z,3.63
2023-09-06T19:08:12.981Z,3.08
2023-09-06T19:10:41.267Z,3.15
2023-09-06T19:13:08.877Z,3.22
2023-09-06T19:15:35.236Z,2.90
2023-09-06T19:18:01.982Z,2.95
2023-09-06T19:20:28.748Z,3.58
2023-09-06T19:22:55.360Z,3.17
2023-09-06T19:25:25.947Z,3.25
2023-09-06T19:27:52.954Z,3.25
2023-09-06T19:30:19.680Z,2.97
2023-09-06T19:32:46.097Z,3.25
2023-09-06T19:35:12.837Z,2.78
2023-09-06T19:37:39.627Z,3.17
2023-09-06T19:40:06.766Z,3.55
2023-09-06T19:42:35.089Z,3.13
2023-09-06T19:45:02.206Z,3.60
2023-09-06T19:47:29.209Z,3.50
2023-09-06T19:49:56.938Z,3.17
2023-09-06T19:52:23.668Z,3.50
2023-09-06T19:54:50.533Z,3.15
2023-09-06T19:57:17.118Z,3.05
2023-09-06T19:59:44.307Z,3.15
2023-09-06T20:02:10.797Z,2.95
2023-09-06T20:04:37.839Z,3.45
2023-09-06T20:07:05.047Z,3.45
2023-09-06T20:09:32.069Z,3.10
2023-09-06T20:11:59.450Z,2.85
2023-09-06T20:14:28.721Z,3.13
2023-09-06T20:16:57.084Z,3.33
2023-09-06T20:19:24.844Z,3.40
2023-09-06T20:21:51.382Z,3.10
2023-09-06T20:24:18.165Z,3.38
2023-09-06T20:26:44.824Z,3.20
2023-09-06T20:29:11.781Z,3.13
2023-09-06T20:31:38.435Z,3.17
2023-09-06T20:34:05.623Z,3.50
2023-09-06T20:36:34.091Z,3.40
2023-09-06T20:39:00.959Z,3.40
2023-09-06T20:41:27.551Z,3.20
2023-09-06T20:43:54.045Z,3.28
2023-09-06T20:46:20.905Z,3.55
2023-09-06T20:48:47.608Z,3.33
2023-09-06T20:51:17.320Z,3.42
2023-09-06T20:53:44.469Z,3.65
2023-09-06T20:56:12.199Z,3.50
2023-09-06T20:58:39.141Z,3.30
2023-09-06T21:01:16.559Z,3.33
2023-09-06T21:03:43.806Z,3.72
2023-09-06T21:06:11.952Z,3.38
2023-09-06T21:08:38.865Z,3.22
2023-09-06T21:11:05.622Z,3.40
2023-09-06T21:13:33.639Z,3.58
2023-09-06T21:16:03.236Z,3.40
2023-09-06T21:18:31.308Z,3.38
2023-09-06T21:20:58.696Z,3.40
2023-09-06T21:23:25.454Z,3.20
2023-09-06T21:25:52.365Z,3.03
2023-09-06T21:28:18.878Z,3.40
2023-09-06T21:30:48.795Z,3.20
2023-09-06T21:33:16.122Z,3.70
2023-09-06T21:35:44.517Z,3.55
2023-09-06T21:38:12.285Z,2.92
2023-09-06T21:40:42.840Z,3.20
2023-09-06T21:43:17.560Z,3.50
2023-09-06T21:45:45.250Z,3.40
2023-09-06T21:48:12.308Z,2.90
2023-09-06T21:50:40.882Z,3.20
2023-09-06T21:53:08.144Z,3.30
2023-09-06T21:55:34.778Z,3.38
2023-09-06T21:58:09.439Z,2.83
2023-09-06T22:00:36.607Z,3.03
2023-09-06T22:03:03.713Z,3.40
2023-09-06T22:05:30.181Z,2.88
2023-09-06T22:07:56.649Z,2.97
2023-09-06T22:10:23.508Z,3.05
2023-09-06T22:12:50.013Z,3.10
2023-09-06T22:15:16.750Z,3.25
2023-09-06T22:17:43.535Z,3.03
2023-09-06T22:20:10.957Z,2.88
2023-09-06T22:22:37.540Z,3.25
2023-09-06T22:25:06.016Z,2.60
2023-09-06T22:27:33.298Z,3.10
2023-09-06T22:29:59.958Z,3.40
2023-09-06T22:32:27.174Z,3.08
2023-09-06T22:34:53.782Z,3.15
2023-09-06T22:37:20.602Z,3.13
2023-09-06T22:39:47.191Z,3.17
2023-09-06T22:42:13.804Z,3.03
2023-09-06T22:44:40.725Z,3.05
2023-09-06T22:47:08.932Z,3.10
2023-09-06T22:49:38.625Z,2.78
2023-09-06T22:52:06.798Z,3.20
2023-09-06T22:54:34.311Z,3.22
2023-09-06T22:57:00.712Z,3.00
2023-09-06T22:59:27.941Z,2.90
2023-09-06T23:01:55.153Z,2.60
2023-09-06T23:04:22.064Z,2.40
2023-09-06T23:06:48.965Z,2.58
2023-09-06T23:09:19.795Z,2.63
2023-09-06T23:11:48.142Z,2.90
2023-09-06T23:14:18.281Z,2.83
2023-09-06T23:16:49.196Z,3.20
2023-09-06T23:19:28.774Z,2.60
2023-09-06T23:22:00.150Z,2.78
2023-09-06T23:24:28.764Z,3.42
2023-09-06T23:27:00.694Z,3.47
2023-09-06T23:29:35.764Z,3.03
2023-09-06T23:32:06.287Z,2.90
2023-09-06T23:34:35.170Z,2.45
2023-09-06T23:37:05.026Z,2.80
2023-09-06T23:39:34.129Z,2.95
2023-09-06T23:42:10.402Z,2.80
2023-09-06T23:44:39.153Z,2.72
2023-09-06T23:47:07.471Z,2.95
2023-09-06T23:49:36.123Z,3.15
2023-09-06T23:52:03.148Z,3.05
2023-09-06T23:54:40.701Z,3.25
2023-09-06T23:57:13.644Z,2.90
2023-09-06T23:59:40.012Z,3.08
